sensor_id;sensor_type;location;lat;lon;timestamp;P1;durP1;ratioP1;P2;durP2;ratioP2
78885;SDS011;68269;52.514;5.722;2023-07-31T00:00:10;1.83;;;0.30;;
78885;SDS011;68269;52.514;5.722;2023-07-31T00:02:40;0.47;;;0.13;;
78885;SDS011;68269;52.514;5.722;2023-07-31T00:05:10;1.38;;;0.20;;
78885;SDS011;68269;52.514;5.722;2023-07-31T00:07:42;0.55;;;0.20;;
78885;SDS011;68269;52.514;5.722;2023-07-31T00:10:11;0.65;;;0.20;;
78885;SDS011;68269;52.514;5.722;2023-07-31T00:12:42;1.30;;;0.20;;
78885;SDS011;68269;52.514;5.722;2023-07-31T00:15:12;0.65;;;0.20;;
78885;SDS011;68269;52.514;5.722;2023-07-31T00:17:42;1.30;;;0.28;;
78885;SDS011;68269;52.514;5.722;2023-07-31T00:20:11;1.95;;;0.30;;
78885;SDS011;68269;52.514;5.722;2023-07-31T00:22:43;0.20;;;0.10;;
78885;SDS011;68269;52.514;5.722;2023-07-31T00:25:12;1.92;;;0.20;;
78885;SDS011;68269;52.514;5.722;2023-07-31T00:27:41;1.90;;;0.35;;
78885;SDS011;68269;52.514;5.722;2023-07-31T00:30:11;0.98;;;0.10;;
78885;SDS011;68269;52.514;5.722;2023-07-31T00:32:42;1.33;;;0.20;;
78885;SDS011;68269;52.514;5.722;2023-07-31T00:35:11;1.17;;;0.20;;
78885;SDS011;68269;52.514;5.722;2023-07-31T00:37:43;0.25;;;0.10;;
78885;SDS011;68269;52.514;5.722;2023-07-31T00:40:12;1.23;;;0.38;;
78885;SDS011;68269;52.514;5.722;2023-07-31T00:42:42;0.73;;;0.20;;
78885;SDS011;68269;52.514;5.722;2023-07-31T00:45:11;1.25;;;0.20;;
78885;SDS011;68269;52.514;5.722;2023-07-31T00:47:40;0.80;;;0.20;;
78885;SDS011;68269;52.514;5.722;2023-07-31T00:50:10;1.65;;;0.30;;
78885;SDS011;68269;52.514;5.722;2023-07-31T00:52:39;0.70;;;0.10;;
78885;SDS011;68269;52.514;5.722;2023-07-31T00:55:11;1.80;;;0.30;;
78885;SDS011;68269;52.514;5.722;2023-07-31T00:57:41;2.28;;;0.38;;
78885;SDS011;68269;52.514;5.722;2023-07-31T01:00:11;2.53;;;0.32;;
78885;SDS011;68269;52.514;5.722;2023-07-31T01:02:41;3.08;;;0.38;;
78885;SDS011;68269;52.514;5.722;2023-07-31T01:05:10;2.95;;;0.32;;
78885;SDS011;68269;52.514;5.722;2023-07-31T01:07:41;1.70;;;0.30;;
78885;SDS011;68269;52.514;5.722;2023-07-31T01:10:20;3.88;;;0.80;;
78885;SDS011;68269;52.514;5.722;2023-07-31T01:12:52;2.28;;;0.30;;
78885;SDS011;68269;52.514;5.722;2023-07-31T01:15:24;3.75;;;0.40;;
78885;SDS011;68269;52.514;5.722;2023-07-31T01:17:54;1.05;;;0.22;;
78885;SDS011;68269;52.514;5.722;2023-07-31T01:20:25;2.53;;;0.55;;
78885;SDS011;68269;52.514;5.722;2023-07-31T01:23:12;1.95;;;0.50;;
78885;SDS011;68269;52.514;5.722;2023-07-31T01:26:07;1.45;;;0.20;;
78885;SDS011;68269;52.514;5.722;2023-07-31T01:28:44;5.05;;;0.47;;
78885;SDS011;68269;52.514;5.722;2023-07-31T01:31:23;3.47;;;0.63;;
78885;SDS011;68269;52.514;5.722;2023-07-31T01:33:53;2.55;;;0.47;;
78885;SDS011;68269;52.514;5.722;2023-07-31T01:36:25;2.88;;;0.45;;
78885;SDS011;68269;52.514;5.722;2023-07-31T01:38:57;3.03;;;0.40;;
78885;SDS011;68269;52.514;5.722;2023-07-31T01:41:29;1.52;;;0.28;;
78885;SDS011;68269;52.514;5.722;2023-07-31T01:43:59;2.78;;;0.57;;
78885;SDS011;68269;52.514;5.722;2023-07-31T01:46:28;5.22;;;0.80;;
78885;SDS011;68269;52.514;5.722;2023-07-31T01:48:58;6.10;;;0.77;;
78885;SDS011;68269;52.514;5.722;2023-07-31T01:51:27;4.25;;;0.70;;
78885;SDS011;68269;52.514;5.722;2023-07-31T01:53:59;2.08;;;0.40;;
78885;SDS011;68269;52.514;5.722;2023-07-31T01:56:31;1.90;;;0.40;;
78885;SDS011;68269;52.514;5.722;2023-07-31T01:59:01;2.85;;;0.55;;
78885;SDS011;68269;52.514;5.722;2023-07-31T02:01:30;4.85;;;0.55;;
78885;SDS011;68269;52.514;5.722;2023-07-31T02:03:59;2.58;;;0.43;;
78885;SDS011;68269;52.514;5.722;2023-07-31T02:06:31;5.95;;;0.93;;
78885;SDS011;68269;52.514;5.722;2023-07-31T02:09:01;6.05;;;0.68;;
78885;SDS011;68269;52.514;5.722;2023-07-31T02:11:34;7.60;;;1.00;;
78885;SDS011;68269;52.514;5.722;2023-07-31T02:14:03;4.15;;;0.60;;
78885;SDS011;68269;52.514;5.722;2023-07-31T02:16:32;4.30;;;0.80;;
78885;SDS011;68269;52.514;5.722;2023-07-31T02:19:02;3.13;;;0.55;;
78885;SDS011;68269;52.514;5.722;2023-07-31T02:21:31;4.93;;;0.70;;
78885;SDS011;68269;52.514;5.722;2023-07-31T02:24:01;4.10;;;0.60;;
78885;SDS011;68269;52.514;5.722;2023-07-31T02:26:30;6.00;;;0.77;;
78885;SDS011;68269;52.514;5.722;2023-07-31T02:29:02;4.75;;;0.80;;
78885;SDS011;68269;52.514;5.722;2023-07-31T02:31:31;3.20;;;0.70;;
78885;SDS011;68269;52.514;5.722;2023-07-31T02:34:00;4.70;;;0.98;;
78885;SDS011;68269;52.514;5.722;2023-07-31T02:36:30;3.65;;;0.63;;
78885;SDS011;68269;52.514;5.722;2023-07-31T02:38:59;5.25;;;0.90;;
78885;SDS011;68269;52.514;5.722;2023-07-31T02:41:28;3.42;;;0.68;;
78885;SDS011;68269;52.514;5.722;2023-07-31T02:43:58;3.50;;;0.47;;
78885;SDS011;68269;52.514;5.722;2023-07-31T02:46:29;3.03;;;0.57;;
78885;SDS011;68269;52.514;5.722;2023-07-31T02:48:59;5.32;;;0.93;;
78885;SDS011;68269;52.514;5.722;2023-07-31T02:51:28;5.60;;;1.08;;
78885;SDS011;68269;52.514;5.722;2023-07-31T02:53:57;5.07;;;0.88;;
78885;SDS011;68269;52.514;5.722;2023-07-31T02:56:27;3.53;;;0.70;;
78885;SDS011;68269;52.514;5.722;2023-07-31T02:58:56;7.70;;;0.98;;
78885;SDS011;68269;52.514;5.722;2023-07-31T03:01:25;5.38;;;1.23;;
78885;SDS011;68269;52.514;5.722;2023-07-31T03:03:57;9.18;;;1.45;;
78885;SDS011;68269;52.514;5.722;2023-07-31T03:06:26;6.40;;;1.20;;
78885;SDS011;68269;52.514;5.722;2023-07-31T03:08:56;5.72;;;1.40;;
78885;SDS011;68269;52.514;5.722;2023-07-31T03:11:25;11.10;;;1.90;;
78885;SDS011;68269;52.514;5.722;2023-07-31T03:13:56;8.02;;;1.42;;
78885;SDS011;68269;52.514;5.722;2023-07-31T03:16:25;9.27;;;1.70;;
78885;SDS011;68269;52.514;5.722;2023-07-31T03:18:57;7.70;;;2.13;;
78885;SDS011;68269;52.514;5.722;2023-07-31T03:21:26;9.85;;;1.77;;
78885;SDS011;68269;52.514;5.722;2023-07-31T03:23:56;8.63;;;1.23;;
78885;SDS011;68269;52.514;5.722;2023-07-31T03:26:25;7.95;;;1.27;;
78885;SDS011;68269;52.514;5.722;2023-07-31T03:28:55;10.70;;;1.92;;
78885;SDS011;68269;52.514;5.722;2023-07-31T03:31:26;7.43;;;1.35;;
78885;SDS011;68269;52.514;5.722;2023-07-31T03:33:58;6.30;;;1.42;;
78885;SDS011;68269;52.514;5.722;2023-07-31T03:36:27;9.07;;;1.98;;
78885;SDS011;68269;52.514;5.722;2023-07-31T03:38:57;12.02;;;1.67;;
78885;SDS011;68269;52.514;5.722;2023-07-31T03:41:26;8.27;;;1.55;;
78885;SDS011;68269;52.514;5.722;2023-07-31T03:43:56;7.70;;;1.52;;
78885;SDS011;68269;52.514;5.722;2023-07-31T03:46:25;6.40;;;1.40;;
78885;SDS011;68269;52.514;5.722;2023-07-31T03:48:54;9.80;;;1.80;;
78885;SDS011;68269;52.514;5.722;2023-07-31T03:51:26;9.98;;;1.55;;
78885;SDS011;68269;52.514;5.722;2023-07-31T03:53:56;11.18;;;1.95;;
78885;SDS011;68269;52.514;5.722;2023-07-31T03:56:25;10.32;;;1.50;;
78885;SDS011;68269;52.514;5.722;2023-07-31T03:58:55;9.73;;;1.63;;
78885;SDS011;68269;52.514;5.722;2023-07-31T04:01:24;6.50;;;1.35;;
78885;SDS011;68269;52.514;5.722;2023-07-31T04:03:53;10.30;;;2.08;;
78885;SDS011;68269;52.514;5.722;2023-07-31T04:06:25;8.85;;;2.08;;
78885;SDS011;68269;52.514;5.722;2023-07-31T04:08:54;10.93;;;2.03;;
78885;SDS011;68269;52.514;5.722;2023-07-31T04:11:24;8.13;;;1.52;;
78885;SDS011;68269;52.514;5.722;2023-07-31T04:13:53;8.57;;;2.17;;
78885;SDS011;68269;52.514;5.722;2023-07-31T04:16:22;7.75;;;1.63;;
78885;SDS011;68269;52.514;5.722;2023-07-31T04:18:52;9.25;;;1.58;;
78885;SDS011;68269;52.514;5.722;2023-07-31T04:21:21;8.43;;;1.73;;
78885;SDS011;68269;52.514;5.722;2023-07-31T04:23:53;12.10;;;1.90;;
78885;SDS011;68269;52.514;5.722;2023-07-31T04:26:24;9.48;;;1.50;;
78885;SDS011;68269;52.514;5.722;2023-07-31T04:28:53;11.98;;;1.92;;
78885;SDS011;68269;52.514;5.722;2023-07-31T04:31:22;9.52;;;1.50;;
78885;SDS011;68269;52.514;5.722;2023-07-31T04:33:52;14.57;;;1.63;;
78885;SDS011;68269;52.514;5.722;2023-07-31T04:36:21;9.82;;;1.42;;
78885;SDS011;68269;52.514;5.722;2023-07-31T04:38:53;7.15;;;1.63;;
78885;SDS011;68269;52.514;5.722;2023-07-31T04:41:22;10.50;;;2.13;;
78885;SDS011;68269;52.514;5.722;2023-07-31T04:43:52;12.75;;;1.75;;
78885;SDS011;68269;52.514;5.722;2023-07-31T04:46:21;7.13;;;1.58;;
78885;SDS011;68269;52.514;5.722;2023-07-31T04:48:50;9.18;;;2.35;;
78885;SDS011;68269;52.514;5.722;2023-07-31T04:51:19;9.30;;;1.52;;
78885;SDS011;68269;52.514;5.722;2023-07-31T04:53:49;8.65;;;1.60;;
78885;SDS011;68269;52.514;5.722;2023-07-31T04:56:21;13.88;;;2.50;;
78885;SDS011;68269;52.514;5.722;2023-07-31T04:58:50;12.50;;;2.13;;
78885;SDS011;68269;52.514;5.722;2023-07-31T05:01:19;9.52;;;1.50;;
78885;SDS011;68269;52.514;5.722;2023-07-31T05:03:49;8.65;;;1.02;;
78885;SDS011;68269;52.514;5.722;2023-07-31T05:06:18;8.55;;;1.70;;
78885;SDS011;68269;52.514;5.722;2023-07-31T05:08:48;7.72;;;1.50;;
78885;SDS011;68269;52.514;5.722;2023-07-31T05:11:17;10.48;;;1.60;;
78885;SDS011;68269;52.514;5.722;2023-07-31T05:13:49;11.13;;;1.67;;
78885;SDS011;68269;52.514;5.722;2023-07-31T05:16:18;7.97;;;1.30;;
78885;SDS011;68269;52.514;5.722;2023-07-31T05:18:48;9.43;;;1.75;;
78885;SDS011;68269;52.514;5.722;2023-07-31T05:21:17;6.18;;;1.58;;
78885;SDS011;68269;52.514;5.722;2023-07-31T05:23:46;10.68;;;1.77;;
78885;SDS011;68269;52.514;5.722;2023-07-31T05:26:16;9.55;;;1.95;;
78885;SDS011;68269;52.514;5.722;2023-07-31T05:28:48;11.82;;;2.03;;
78885;SDS011;68269;52.514;5.722;2023-07-31T05:31:17;9.18;;;2.05;;
78885;SDS011;68269;52.514;5.722;2023-07-31T05:33:48;8.98;;;1.60;;
78885;SDS011;68269;52.514;5.722;2023-07-31T05:36:18;6.88;;;1.33;;
78885;SDS011;68269;52.514;5.722;2023-07-31T05:38:47;3.92;;;0.90;;
78885;SDS011;68269;52.514;5.722;2023-07-31T05:41:17;11.02;;;1.55;;
78885;SDS011;68269;52.514;5.722;2023-07-31T05:43:49;7.97;;;1.60;;
78885;SDS011;68269;52.514;5.722;2023-07-31T05:46:19;8.55;;;1.75;;
78885;SDS011;68269;52.514;5.722;2023-07-31T05:48:48;6.90;;;1.13;;
78885;SDS011;68269;52.514;5.722;2023-07-31T05:51:17;8.35;;;1.50;;
78885;SDS011;68269;52.514;5.722;2023-07-31T05:53:47;9.38;;;1.42;;
78885;SDS011;68269;52.514;5.722;2023-07-31T05:56:16;5.88;;;1.33;;
78885;SDS011;68269;52.514;5.722;2023-07-31T05:58:45;5.90;;;1.20;;
78885;SDS011;68269;52.514;5.722;2023-07-31T06:01:17;7.00;;;1.27;;
78885;SDS011;68269;52.514;5.722;2023-07-31T06:03:47;4.53;;;0.80;;
78885;SDS011;68269;52.514;5.722;2023-07-31T06:06:16;4.18;;;1.00;;
78885;SDS011;68269;52.514;5.722;2023-07-31T06:08:45;5.32;;;0.90;;
78885;SDS011;68269;52.514;5.722;2023-07-31T06:11:15;5.50;;;1.20;;
78885;SDS011;68269;52.514;5.722;2023-07-31T06:13:45;2.72;;;0.52;;
78885;SDS011;68269;52.514;5.722;2023-07-31T06:16:17;3.95;;;0.90;;
78885;SDS011;68269;52.514;5.722;2023-07-31T06:18:47;3.25;;;0.60;;
78885;SDS011;68269;52.514;5.722;2023-07-31T06:21:16;3.45;;;0.70;;
78885;SDS011;68269;52.514;5.722;2023-07-31T06:23:46;4.50;;;0.63;;
78885;SDS011;68269;52.514;5.722;2023-07-31T06:26:15;2.42;;;0.52;;
78885;SDS011;68269;52.514;5.722;2023-07-31T06:28:44;4.60;;;0.60;;
78885;SDS011;68269;52.514;5.722;2023-07-31T06:31:13;3.13;;;0.50;;
78885;SDS011;68269;52.514;5.722;2023-07-31T06:33:48;3.95;;;0.55;;
78885;SDS011;68269;52.514;5.722;2023-07-31T06:36:17;5.22;;;0.90;;
78885;SDS011;68269;52.514;5.722;2023-07-31T06:38:47;2.90;;;0.50;;
78885;SDS011;68269;52.514;5.722;2023-07-31T06:41:16;3.00;;;0.60;;
78885;SDS011;68269;52.514;5.722;2023-07-31T06:43:46;4.35;;;0.77;;
78885;SDS011;68269;52.514;5.722;2023-07-31T06:46:18;3.30;;;0.70;;
78885;SDS011;68269;52.514;5.722;2023-07-31T06:48:47;2.20;;;0.43;;
78885;SDS011;68269;52.514;5.722;2023-07-31T06:51:17;2.95;;;0.60;;
78885;SDS011;68269;52.514;5.722;2023-07-31T06:53:46;2.33;;;0.50;;
78885;SDS011;68269;52.514;5.722;2023-07-31T06:56:15;3.35;;;0.70;;
78885;SDS011;68269;52.514;5.722;2023-07-31T06:58:45;3.13;;;0.45;;
78885;SDS011;68269;52.514;5.722;2023-07-31T07:01:14;3.20;;;0.65;;
78885;SDS011;68269;52.514;5.722;2023-07-31T07:03:46;1.90;;;0.38;;
78885;SDS011;68269;52.514;5.722;2023-07-31T07:06:16;3.10;;;0.43;;
78885;SDS011;68269;52.514;5.722;2023-07-31T07:08:45;2.05;;;0.47;;
78885;SDS011;68269;52.514;5.722;2023-07-31T07:11:15;1.42;;;0.40;;
78885;SDS011;68269;52.514;5.722;2023-07-31T07:13:44;1.65;;;0.30;;
78885;SDS011;68269;52.514;5.722;2023-07-31T07:16:13;2.45;;;0.43;;
78885;SDS011;68269;52.514;5.722;2023-07-31T07:18:43;2.92;;;0.63;;
78885;SDS011;68269;52.514;5.722;2023-07-31T07:21:15;3.00;;;0.70;;
78885;SDS011;68269;52.514;5.722;2023-07-31T07:23:44;1.52;;;0.47;;
78885;SDS011;68269;52.514;5.722;2023-07-31T07:26:13;2.65;;;0.60;;
78885;SDS011;68269;52.514;5.722;2023-07-31T07:28:43;2.35;;;0.40;;
78885;SDS011;68269;52.514;5.722;2023-07-31T07:31:12;5.28;;;0.60;;
78885;SDS011;68269;52.514;5.722;2023-07-31T07:33:42;2.67;;;0.55;;
78885;SDS011;68269;52.514;5.722;2023-07-31T07:36:13;4.47;;;0.88;;
78885;SDS011;68269;52.514;5.722;2023-07-31T07:38:43;5.30;;;0.70;;
78885;SDS011;68269;52.514;5.722;2023-07-31T07:41:12;2.20;;;0.38;;
78885;SDS011;68269;52.514;5.722;2023-07-31T07:43:42;1.95;;;0.40;;
78885;SDS011;68269;52.514;5.722;2023-07-31T07:46:11;2.13;;;0.47;;
78885;SDS011;68269;52.514;5.722;2023-07-31T07:48:40;2.55;;;0.40;;
78885;SDS011;68269;52.514;5.722;2023-07-31T07:51:10;2.95;;;0.47;;
78885;SDS011;68269;52.514;5.722;2023-07-31T07:53:41;2.05;;;0.20;;
78885;SDS011;68269;52.514;5.722;2023-07-31T07:56:11;1.63;;;0.40;;
78885;SDS011;68269;52.514;5.722;2023-07-31T07:58:40;2.38;;;0.50;;
78885;SDS011;68269;52.514;5.722;2023-07-31T08:01:09;1.25;;;0.32;;
78885;SDS011;68269;52.514;5.722;2023-07-31T08:03:39;2.92;;;0.57;;
78885;SDS011;68269;52.514;5.722;2023-07-31T08:06:08;1.60;;;0.30;;
78885;SDS011;68269;52.514;5.722;2023-07-31T08:08:38;2.40;;;0.25;;
78885;SDS011;68269;52.514;5.722;2023-07-31T08:11:10;1.38;;;0.30;;
78885;SDS011;68269;52.514;5.722;2023-07-31T08:13:39;1.15;;;0.30;;
78885;SDS011;68269;52.514;5.722;2023-07-31T08:16:09;1.95;;;0.43;;
78885;SDS011;68269;52.514;5.722;2023-07-31T08:18:38;1.15;;;0.30;;
78885;SDS011;68269;52.514;5.722;2023-07-31T08:21:08;1.98;;;0.28;;
78885;SDS011;68269;52.514;5.722;2023-07-31T08:23:37;1.52;;;0.20;;
78885;SDS011;68269;52.514;5.722;2023-07-31T08:26:09;0.73;;;0.20;;
78885;SDS011;68269;52.514;5.722;2023-07-31T08:28:43;1.05;;;0.20;;
78885;SDS011;68269;52.514;5.722;2023-07-31T08:31:13;0.75;;;0.20;;
78885;SDS011;68269;52.514;5.722;2023-07-31T08:33:42;1.60;;;0.43;;
78885;SDS011;68269;52.514;5.722;2023-07-31T08:36:11;1.77;;;0.30;;
78885;SDS011;68269;52.514;5.722;2023-07-31T08:38:41;0.95;;;0.30;;
78885;SDS011;68269;52.514;5.722;2023-07-31T08:41:13;1.65;;;0.50;;
78885;SDS011;68269;52.514;5.722;2023-07-31T08:43:43;0.22;;;0.08;;
78885;SDS011;68269;52.514;5.722;2023-07-31T08:46:13;1.88;;;0.38;;
78885;SDS011;68269;52.514;5.722;2023-07-31T08:48:43;2.15;;;0.20;;
78885;SDS011;68269;52.514;5.722;2023-07-31T08:51:13;1.15;;;0.10;;
78885;SDS011;68269;52.514;5.722;2023-07-31T08:53:43;0.30;;;0.10;;
78885;SDS011;68269;52.514;5.722;2023-07-31T08:56:15;0.82;;;0.20;;
78885;SDS011;68269;52.514;5.722;2023-07-31T08:58:46;1.08;;;0.20;;
78885;SDS011;68269;52.514;5.722;2023-07-31T09:01:22;0.50;;;0.20;;
78885;SDS011;68269;52.514;5.722;2023-07-31T09:04:01;1.33;;;0.30;;
78885;SDS011;68269;52.514;5.722;2023-07-31T09:15:41;0.43;;;0.10;;
78885;SDS011;68269;52.514;5.722;2023-07-31T09:18:23;0.55;;;0.20;;
78885;SDS011;68269;52.514;5.722;2023-07-31T09:21:01;0.40;;;0.20;;
78885;SDS011;68269;52.514;5.722;2023-07-31T09:23:42;0.88;;;0.30;;
78885;SDS011;68269;52.514;5.722;2023-07-31T09:31:42;0.95;;;0.22;;
78885;SDS011;68269;52.514;5.722;2023-07-31T09:36:57;0.30;;;0.10;;
78885;SDS011;68269;52.514;5.722;2023-07-31T09:39:30;1.00;;;0.30;;
78885;SDS011;68269;52.514;5.722;2023-07-31T09:41:59;0.85;;;0.20;;
78885;SDS011;68269;52.514;5.722;2023-07-31T09:44:38;0.50;;;0.10;;
78885;SDS011;68269;52.514;5.722;2023-07-31T09:47:24;1.80;;;0.30;;
78885;SDS011;68269;52.514;5.722;2023-07-31T09:49:56;0.85;;;0.20;;
78885;SDS011;68269;52.514;5.722;2023-07-31T09:52:26;1.08;;;0.30;;
78885;SDS011;68269;52.514;5.722;2023-07-31T09:54:55;1.33;;;0.20;;
78885;SDS011;68269;52.514;5.722;2023-07-31T09:57:25;1.52;;;0.22;;
78885;SDS011;68269;52.514;5.722;2023-07-31T09:59:55;0.60;;;0.20;;
78885;SDS011;68269;52.514;5.722;2023-07-31T10:02:27;1.35;;;0.20;;
78885;SDS011;68269;52.514;5.722;2023-07-31T10:04:58;0.65;;;0.20;;
78885;SDS011;68269;52.514;5.722;2023-07-31T10:07:30;0.40;;;0.10;;
78885;SDS011;68269;52.514;5.722;2023-07-31T10:10:02;0.10;;;0.00;;
78885;SDS011;68269;52.514;5.722;2023-07-31T10:12:34;1.95;;;0.10;;
78885;SDS011;68269;52.514;5.722;2023-07-31T10:15:05;1.20;;;0.30;;
78885;SDS011;68269;52.514;5.722;2023-07-31T10:17:39;0.10;;;0.00;;
78885;SDS011;68269;52.514;5.722;2023-07-31T10:20:09;1.23;;;0.10;;
78885;SDS011;68269;52.514;5.722;2023-07-31T10:22:39;0.03;;;0.03;;
78885;SDS011;68269;52.514;5.722;2023-07-31T10:25:09;0.55;;;0.20;;
78885;SDS011;68269;52.514;5.722;2023-07-31T10:27:39;0.22;;;0.10;;
78885;SDS011;68269;52.514;5.722;2023-07-31T10:30:10;0.35;;;0.10;;
78885;SDS011;68269;52.514;5.722;2023-07-31T10:32:44;0.93;;;0.10;;
78885;SDS011;68269;52.514;5.722;2023-07-31T10:35:16;0.40;;;0.10;;
78885;SDS011;68269;52.514;5.722;2023-07-31T10:37:48;1.20;;;0.20;;
78885;SDS011;68269;52.514;5.722;2023-07-31T10:40:18;0.60;;;0.20;;
78885;SDS011;68269;52.514;5.722;2023-07-31T10:42:55;1.92;;;0.13;;
78885;SDS011;68269;52.514;5.722;2023-07-31T10:45:26;1.48;;;0.30;;
78885;SDS011;68269;52.514;5.722;2023-07-31T10:48:05;1.15;;;0.30;;
78885;SDS011;68269;52.514;5.722;2023-07-31T10:50:36;4.57;;;0.30;;
78885;SDS011;68269;52.514;5.722;2023-07-31T10:53:07;1.08;;;0.17;;
78885;SDS011;68269;52.514;5.722;2023-07-31T10:55:52;0.75;;;0.20;;
78885;SDS011;68269;52.514;5.722;2023-07-31T10:58:26;1.77;;;0.30;;
78885;SDS011;68269;52.514;5.722;2023-07-31T11:00:58;1.23;;;0.20;;
78885;SDS011;68269;52.514;5.722;2023-07-31T11:03:44;1.20;;;0.20;;
78885;SDS011;68269;52.514;5.722;2023-07-31T11:06:15;1.15;;;0.20;;
78885;SDS011;68269;52.514;5.722;2023-07-31T11:08:45;1.30;;;0.25;;
78885;SDS011;68269;52.514;5.722;2023-07-31T11:11:16;4.68;;;0.65;;
78885;SDS011;68269;52.514;5.722;2023-07-31T11:13:47;3.35;;;0.43;;
78885;SDS011;68269;52.514;5.722;2023-07-31T11:16:19;2.97;;;0.70;;
78885;SDS011;68269;52.514;5.722;2023-07-31T11:18:52;3.55;;;0.57;;
78885;SDS011;68269;52.514;5.722;2023-07-31T11:21:22;2.10;;;0.45;;
78885;SDS011;68269;52.514;5.722;2023-07-31T11:23:53;3.15;;;0.50;;
78885;SDS011;68269;52.514;5.722;2023-07-31T11:26:25;1.92;;;0.30;;
78885;SDS011;68269;52.514;5.722;2023-07-31T11:28:56;3.08;;;0.68;;
78885;SDS011;68269;52.514;5.722;2023-07-31T11:31:25;3.92;;;0.50;;
78885;SDS011;68269;52.514;5.722;2023-07-31T11:34:06;3.90;;;0.70;;
78885;SDS011;68269;52.514;5.722;2023-07-31T11:36:36;3.30;;;0.60;;
78885;SDS011;68269;52.514;5.722;2023-07-31T11:39:05;3.70;;;0.52;;
78885;SDS011;68269;52.514;5.722;2023-07-31T11:41:36;3.13;;;0.45;;
78885;SDS011;68269;52.514;5.722;2023-07-31T11:44:08;8.82;;;0.85;;
78885;SDS011;68269;52.514;5.722;2023-07-31T11:46:38;3.65;;;0.63;;
78885;SDS011;68269;52.514;5.722;2023-07-31T11:49:10;3.30;;;1.10;;
78885;SDS011;68269;52.514;5.722;2023-07-31T11:51:40;3.17;;;0.70;;
78885;SDS011;68269;52.514;5.722;2023-07-31T11:54:09;3.65;;;0.68;;
78885;SDS011;68269;52.514;5.722;2023-07-31T11:56:39;3.65;;;0.60;;
78885;SDS011;68269;52.514;5.722;2023-07-31T11:59:09;5.93;;;0.70;;
78885;SDS011;68269;52.514;5.722;2023-07-31T12:01:38;3.97;;;0.50;;
78885;SDS011;68269;52.514;5.722;2023-07-31T12:04:11;1.70;;;0.50;;
78885;SDS011;68269;52.514;5.722;2023-07-31T12:06:40;2.42;;;0.40;;
78885;SDS011;68269;52.514;5.722;2023-07-31T12:09:10;4.10;;;0.73;;
78885;SDS011;68269;52.514;5.722;2023-07-31T12:11:42;2.58;;;0.57;;
78885;SDS011;68269;52.514;5.722;2023-07-31T12:14:19;4.65;;;0.65;;
78885;SDS011;68269;52.514;5.722;2023-07-31T12:16:52;3.35;;;0.77;;
78885;SDS011;68269;52.514;5.722;2023-07-31T12:19:25;1.90;;;0.30;;
78885;SDS011;68269;52.514;5.722;2023-07-31T12:21:56;3.58;;;0.75;;
78885;SDS011;68269;52.514;5.722;2023-07-31T12:24:26;4.10;;;0.63;;
78885;SDS011;68269;52.514;5.722;2023-07-31T12:26:56;3.25;;;0.60;;
78885;SDS011;68269;52.514;5.722;2023-07-31T12:29:33;3.17;;;0.60;;
78885;SDS011;68269;52.514;5.722;2023-07-31T12:32:03;4.88;;;0.60;;
78885;SDS011;68269;52.514;5.722;2023-07-31T12:34:41;4.95;;;0.75;;
78885;SDS011;68269;52.514;5.722;2023-07-31T12:37:12;4.18;;;0.68;;
78885;SDS011;68269;52.514;5.722;2023-07-31T12:39:41;2.95;;;0.63;;
78885;SDS011;68269;52.514;5.722;2023-07-31T12:42:11;6.55;;;0.80;;
78885;SDS011;68269;52.514;5.722;2023-07-31T12:44:40;5.40;;;0.80;;
78885;SDS011;68269;52.514;5.722;2023-07-31T12:47:09;5.18;;;0.77;;
78885;SDS011;68269;52.514;5.722;2023-07-31T12:49:43;3.08;;;0.50;;
78885;SDS011;68269;52.514;5.722;2023-07-31T12:52:12;1.95;;;0.43;;
78885;SDS011;68269;52.514;5.722;2023-07-31T12:54:42;6.45;;;0.90;;
78885;SDS011;68269;52.514;5.722;2023-07-31T12:57:11;3.95;;;1.02;;
78885;SDS011;68269;52.514;5.722;2023-07-31T12:59:41;5.95;;;0.57;;
78885;SDS011;68269;52.514;5.722;2023-07-31T13:02:10;5.07;;;0.93;;
78885;SDS011;68269;52.514;5.722;2023-07-31T13:04:39;4.50;;;0.70;;
78885;SDS011;68269;52.514;5.722;2023-07-31T13:07:11;5.00;;;0.80;;
78885;SDS011;68269;52.514;5.722;2023-07-31T13:09:41;6.13;;;1.27;;
78885;SDS011;68269;52.514;5.722;2023-07-31T13:12:10;5.93;;;0.75;;
78885;SDS011;68269;52.514;5.722;2023-07-31T13:14:39;2.72;;;0.60;;
78885;SDS011;68269;52.514;5.722;2023-07-31T13:17:09;5.80;;;0.60;;
78885;SDS011;68269;52.514;5.722;2023-07-31T13:19:38;3.33;;;0.70;;
78885;SDS011;68269;52.514;5.722;2023-07-31T13:22:10;6.53;;;2.05;;
78885;SDS011;68269;52.514;5.722;2023-07-31T13:24:39;5.30;;;0.93;;
78885;SDS011;68269;52.514;5.722;2023-07-31T13:27:09;6.45;;;0.95;;
78885;SDS011;68269;52.514;5.722;2023-07-31T13:29:38;2.70;;;0.80;;
78885;SDS011;68269;52.514;5.722;2023-07-31T13:32:07;3.67;;;0.90;;
78885;SDS011;68269;52.514;5.722;2023-07-31T13:34:37;3.47;;;0.63;;
78885;SDS011;68269;52.514;5.722;2023-07-31T13:37:06;2.63;;;0.57;;
78885;SDS011;68269;52.514;5.722;2023-07-31T13:39:38;4.20;;;0.77;;
78885;SDS011;68269;52.514;5.722;2023-07-31T13:42:08;4.07;;;0.70;;
78885;SDS011;68269;52.514;5.722;2023-07-31T13:44:38;3.05;;;0.52;;
78885;SDS011;68269;52.514;5.722;2023-07-31T13:47:08;5.70;;;0.90;;
78885;SDS011;68269;52.514;5.722;2023-07-31T13:49:38;3.25;;;0.60;;
78885;SDS011;68269;52.514;5.722;2023-07-31T13:52:09;2.25;;;0.40;;
78885;SDS011;68269;52.514;5.722;2023-07-31T13:54:43;3.45;;;0.88;;
78885;SDS011;68269;52.514;5.722;2023-07-31T13:57:13;2.03;;;0.45;;
78885;SDS011;68269;52.514;5.722;2023-07-31T13:59:42;2.30;;;0.50;;
78885;SDS011;68269;52.514;5.722;2023-07-31T14:02:12;5.65;;;0.95;;
78885;SDS011;68269;52.514;5.722;2023-07-31T14:04:41;4.65;;;0.63;;
78885;SDS011;68269;52.514;5.722;2023-07-31T14:07:11;2.05;;;0.52;;
78885;SDS011;68269;52.514;5.722;2023-07-31T14:09:40;2.88;;;0.45;;
78885;SDS011;68269;52.514;5.722;2023-07-31T14:12:12;3.03;;;0.43;;
78885;SDS011;68269;52.514;5.722;2023-07-31T14:14:41;1.88;;;0.60;;
78885;SDS011;68269;52.514;5.722;2023-07-31T14:17:10;3.08;;;0.57;;
78885;SDS011;68269;52.514;5.722;2023-07-31T14:19:40;3.00;;;0.50;;
78885;SDS011;68269;52.514;5.722;2023-07-31T14:22:09;2.65;;;0.55;;
78885;SDS011;68269;52.514;5.722;2023-07-31T14:24:38;2.53;;;0.32;;
78885;SDS011;68269;52.514;5.722;2023-07-31T14:27:08;3.53;;;0.65;;
78885;SDS011;68269;52.514;5.722;2023-07-31T14:29:40;3.90;;;0.73;;
78885;SDS011;68269;52.514;5.722;2023-07-31T14:32:09;3.20;;;0.57;;
78885;SDS011;68269;52.514;5.722;2023-07-31T14:34:38;3.60;;;0.70;;
78885;SDS011;68269;52.514;5.722;2023-07-31T14:37:08;2.30;;;0.57;;
78885;SDS011;68269;52.514;5.722;2023-07-31T14:39:37;3.92;;;0.63;;
78885;SDS011;68269;52.514;5.722;2023-07-31T14:42:06;4.90;;;0.80;;
78885;SDS011;68269;52.514;5.722;2023-07-31T14:44:36;3.63;;;0.88;;
78885;SDS011;68269;52.514;5.722;2023-07-31T14:47:08;4.70;;;0.88;;
78885;SDS011;68269;52.514;5.722;2023-07-31T14:49:37;3.42;;;0.70;;
78885;SDS011;68269;52.514;5.722;2023-07-31T14:52:06;3.17;;;0.60;;
78885;SDS011;68269;52.514;5.722;2023-07-31T14:54:36;2.40;;;0.50;;
78885;SDS011;68269;52.514;5.722;2023-07-31T14:57:05;2.33;;;0.30;;
78885;SDS011;68269;52.514;5.722;2023-07-31T14:59:35;3.35;;;0.60;;
78885;SDS011;68269;52.514;5.722;2023-07-31T15:02:04;2.88;;;0.40;;
78885;SDS011;68269;52.514;5.722;2023-07-31T15:04:37;1.77;;;0.40;;
78885;SDS011;68269;52.514;5.722;2023-07-31T15:07:07;1.90;;;0.30;;
78885;SDS011;68269;52.514;5.722;2023-07-31T15:09:36;1.70;;;0.30;;
78885;SDS011;68269;52.514;5.722;2023-07-31T15:12:06;1.70;;;0.40;;
78885;SDS011;68269;52.514;5.722;2023-07-31T15:14:36;2.15;;;0.38;;
78885;SDS011;68269;52.514;5.722;2023-07-31T15:17:08;1.67;;;0.50;;
78885;SDS011;68269;52.514;5.722;2023-07-31T15:19:37;2.83;;;0.30;;
78885;SDS011;68269;52.514;5.722;2023-07-31T15:22:07;1.60;;;0.40;;
78885;SDS011;68269;52.514;5.722;2023-07-31T15:24:36;0.43;;;0.20;;